Time;durP1;ratioP1;P1;durP2;ratioP2;P2;SDS_P1;SDS_P2;PMS_P1;PMS_P2;Temp;Humidity;BMP_temperature;BMP_pressure;BME280_temperature;BME280_humidity;BME280_pressure;Samples;Min_cycle;Max_cycle;Signal;HPM_P1;HPM_P2
2022/01/20 00:01:50;;;;;;;10.32;7.83;;;;;;;13.90;28.46;98779.64;1726394;81;20969;-58
2022/01/20 00:03:38;;;;;;;13.10;8.05;;;;;;;13.89;28.40;98782.54;1724257;82;21035;-60
2022/01/20 00:28:13;;;;;;;10.13;7.50;;;;;;;14.03;27.83;98733.33;1711426;83;20943;-62
2022/01/20 00:31:02;;;;;;;9.40;6.55;;;;;;;14.03;27.70;98725.31;1738824;82;21049;-58
2022/01/20 00:33:35;;;;;;;10.38;7.05;;;;;;;14.03;27.55;98724.80;1729900;82;21026;-62
2022/01/20 00:38:22;;;;;;;10.80;7.42;;;;;;;13.95;27.46;98713.50;1709678;83;21960;-59
2022/01/20 00:40:50;;;;;;;11.03;7.30;;;;;;;13.97;27.39;98714.14;1719554;82;21075;-61
2022/01/20 00:43:16;;;;;;;10.28;7.25;;;;;;;13.95;27.34;98709.49;1684641;82;21544;-60
2022/01/20 00:45:43;;;;;;;10.03;6.60;;;;;;;14.03;27.17;98702.58;1747610;82;20938;-62
2022/01/20 00:48:09;;;;;;;10.03;7.40;;;;;;;14.03;27.13;98698.56;1705366;82;21561;-58
2022/01/20 00:50:38;;;;;;;11.43;8.20;;;;;;;14.00;27.07;98685.64;1737647;82;21175;-60
2022/01/20 00:53:06;;;;;;;9.43;6.95;;;;;;;14.00;27.04;98688.32;1715797;83;21507;-59
2022/01/20 00:55:33;;;;;;;11.10;7.50;;;;;;;14.05;26.99;98681.82;1738815;82;20971;-60
2022/01/20 00:57:59;;;;;;;9.13;7.78;;;;;;;14.14;26.84;98673.84;1737802;82;20887;-62
2022/01/20 01:00:28;;;;;;;13.28;7.65;;;;;;;14.11;26.83;98671.59;1726318;81;21033;-60
2022/01/20 01:02:56;;;;;;;10.82;7.35;;;;;;;14.05;26.82;98678.60;1724249;83;21228;-61
2022/01/20 01:05:24;;;;;;;12.10;7.45;;;;;;;13.99;26.85;98671.45;1714692;81;20896;-60
2022/01/20 01:07:53;;;;;;;11.00;6.90;;;;;;;14.03;26.83;98666.48;1716602;83;20970;-60
2022/01/20 01:10:28;;;;;;;8.58;6.97;;;;;;;14.07;26.74;98663.70;1721084;83;20986;-59
2022/01/20 01:15:29;;;;;;;10.03;7.35;;;;;;;14.08;26.71;98646.60;1721933;81;21879;-64
2022/01/20 01:23:20;;;;;;;9.10;7.60;;;;;;;14.03;26.70;98626.36;1714428;83;20924;-62
2022/01/20 01:25:47;;;;;;;10.90;7.35;;;;;;;14.11;26.57;98619.44;1726649;83;20944;-61
2022/01/20 01:28:13;;;;;;;10.53;7.78;;;;;;;14.11;26.49;98613.58;1717326;83;23280;-60
2022/01/20 01:33:25;;;;;;;14.25;7.00;;;;;;;14.10;26.39;98605.23;1707010;82;21008;-60
2022/01/20 01:35:56;;;;;;;9.05;6.85;;;;;;;14.09;26.36;98604.13;1715216;83;20987;-58
2022/01/20 01:38:35;;;;;;;9.60;6.78;;;;;;;14.03;26.34;98603.63;1712682;83;21035;-60
2022/01/20 01:40:51;;;;;;;13.40;8.25;;;;;;;13.89;26.45;98604.74;1702611;82;21165;-59
2022/01/20 01:43:25;;;;;;;11.97;8.38;;;;;;;14.22;26.11;98603.55;1716839;81;20973;-56
2022/01/20 01:45:48;;;;;;;11.25;8.53;;;;;;;14.24;26.05;98591.28;1727033;81;20928;-59
2022/01/20 01:48:16;;;;;;;8.75;7.55;;;;;;;14.30;26.00;98586.42;1707912;83;20953;-61
2022/01/20 01:50:43;;;;;;;11.68;8.00;;;;;;;14.35;25.89;98588.47;1716472;83;20880;-61
2022/01/20 01:53:10;;;;;;;12.37;7.47;;;;;;;14.37;25.84;98577.86;1717657;83;21045;-61
2022/01/20 01:55:37;;;;;;;12.20;8.20;;;;;;;14.35;25.86;98575.09;1715044;83;21486;-58
2022/01/20 01:58:04;;;;;;;11.30;8.03;;;;;;;14.32;25.85;98572.84;1716726;83;20940;-60
2022/01/20 02:00:32;;;;;;;11.03;7.55;;;;;;;14.31;25.86;98568.04;1715521;81;20955;-61
2022/01/20 02:03:00;;;;;;;10.93;7.85;;;;;;;14.33;25.84;98565.96;1719315;82;20865;-61
2022/01/20 02:05:52;;;;;;;10.65;7.03;;;;;;;14.27;25.86;98553.92;1714638;81;21182;-59
2022/01/20 02:18:55;;;;;;;;;;;;;;;13.59;26.47;98545.64;1713458;83;21165;-59
2022/01/20 02:21:30;;;;;;;11.83;7.45;;;;;;;13.55;26.51;98547.94;1692481;84;20386;-58
2022/01/20 02:23:58;;;;;;;11.00;8.00;;;;;;;13.56;26.49;98539.38;1691382;84;21536;-59
2022/01/20 02:26:25;;;;;;;11.65;7.85;;;;;;;13.59;26.48;98535.78;1719435;83;21585;-58
2022/01/20 02:28:52;;;;;;;10.57;8.33;;;;;;;13.59;26.50;98531.77;1708764;83;21091;-60
2022/01/20 02:31:18;;;;;;;10.65;8.05;;;;;;;13.63;26.51;98539.37;1692474;82;21144;-60
2022/01/20 02:33:45;;;;;;;14.47;8.93;;;;;;;13.61;26.55;98540.39;1687367;83;20939;-60
2022/01/20 02:36:15;;;;;;;13.35;8.63;;;;;;;13.66;26.53;98532.27;1722790;83;21418;-58
2022/01/20 02:38:49;;;;;;;12.13;8.40;;;;;;;13.70;26.48;98530.28;1708766;83;21426;-60
2022/01/20 02:46:39;;;;;;;13.65;8.13;;;;;;;13.87;26.29;98531.96;1722430;81;20904;-62
2022/01/20 02:49:07;;;;;;;11.25;7.12;;;;;;;13.82;26.31;98523.77;1711223;83;21463;-61
2022/01/20 02:51:35;;;;;;;8.68;7.08;;;;;;;13.79;26.35;98528.20;1718937;82;21675;-60
2022/01/20 02:54:04;;;;;;;9.73;7.03;;;;;;;13.69;26.48;98526.50;1683202;83;36151;-60
2022/01/20 02:56:31;;;;;;;9.63;6.37;;;;;;;13.69;26.48;98526.50;1722826;83;22012;-59
2022/01/20 02:58:58;;;;;;;10.72;7.15;;;;;;;13.83;26.28;98524.05;1729145;82;20894;-61
2022/01/20 03:01:24;;;;;;;9.95;6.87;;;;;;;13.86;26.22;98522.29;1724931;83;20916;-62
2022/01/20 03:03:51;;;;;;;14.87;7.83;;;;;;;13.91;26.20;98525.14;1725337;82;21458;-58
2022/01/20 03:06:17;;;;;;;10.28;7.37;;;;;;;13.92;26.18;98518.77;1716435;83;21526;-60
2022/01/20 03:08:44;;;;;;;12.78;7.95;;;;;;;13.89;26.20;98523.20;1717165;83;21310;-61
2022/01/20 03:11:11;;;;;;;14.60;7.95;;;;;;;13.92;26.15;98522.23;1719471;83;20959;-61
2022/01/20 03:13:38;;;;;;;13.93;7.80;;;;;;;13.93;26.13;98523.89;1727434;83;21038;-60
2022/01/20 03:16:05;;;;;;;11.40;8.55;;;;;;;13.99;26.09;98522.22;1714068;81;21031;-60
2022/01/20 03:18:32;;;;;;;9.90;7.15;;;;;;;13.97;26.10;98521.11;1713955;83;21038;-59
2022/01/20 03:20:58;;;;;;;10.60;7.10;;;;;;;13.99;26.04;98522.22;1714440;83;21147;-63
2022/01/20 03:23:25;;;;;;;10.93;7.75;;;;;;;14.01;25.95;98526.31;1717355;83;21564;-60
2022/01/20 03:25:51;;;;;;;8.80;7.37;;;;;;;14.04;25.88;98518.38;1725405;83;21001;-59
2022/01/20 03:28:18;;;;;;;11.63;7.45;;;;;;;14.05;25.76;98508.79;1719811;83;20877;-59
2022/01/20 03:30:48;;;;;;;10.88;7.08;;;;;;;13.97;25.83;98511.75;1714297;81;21465;-58
2022/01/20 03:33:14;;;;;;;9.85;7.15;;;;;;;13.98;25.75;98510.70;1724186;82;21109;-60
2022/01/20 03:35:42;;;;;;;9.80;6.40;;;;;;;13.91;25.81;98501.91;1715187;82;20836;-57
2022/01/20 03:38:20;;;;;;;9.88;7.03;;;;;;;13.91;25.83;98503.75;1692418;83;21029;-62
2022/01/20 03:40:46;;;;;;;9.45;6.42;;;;;;;13.91;25.81;98503.23;1706954;82;20971;-60
2022/01/20 03:43:12;;;;;;;9.50;7.20;;;;;;;13.88;25.86;98500.16;1726814;82;20889;-63
2022/01/20 03:45:41;;;;;;;9.98;7.15;;;;;;;13.96;25.81;98497.23;1715980;81;21966;-57
2022/01/20 03:48:11;;;;;;;9.73;6.78;;;;;;;14.06;25.72;98502.93;1715474;82;20908;-61
2022/01/20 03:53:23;;;;;;;11.12;7.08;;;;;;;14.07;25.67;98486.69;1719824;83;20947;-57
2022/01/20 03:55:51;;;;;;;12.23;7.30;;;;;;;13.99;25.71;98479.44;1713225;82;20960;-61
2022/01/20 03:58:18;;;;;;;10.88;7.45;;;;;;;13.97;25.72;98476.98;1722562;82;21225;-57
2022/01/20 04:00:46;;;;;;;10.70;6.78;;;;;;;13.95;25.74;98480.37;1716193;81;21028;-58
2022/01/20 04:03:15;;;;;;;10.70;7.25;;;;;;;13.83;25.86;98479.94;1722534;83;20989;-61
2022/01/20 04:08:32;;;;;;;11.12;8.03;;;;;;;13.79;25.96;98476.07;1705188;83;20894;-61
2022/01/20 04:11:08;;;;;;;12.25;7.40;;;;;;;13.70;26.02;98474.67;1711352;82;21167;-57
2022/01/20 04:13:35;;;;;;;9.85;6.60;;;;;;;13.67;26.06;98479.09;1723189;83;20987;-61
2022/01/20 04:16:13;;;;;;;13.43;8.03;;;;;;;13.63;26.13;98476.05;1718376;81;20968;-60
2022/01/20 04:18:37;;;;;;;11.53;8.18;;;;;;;13.57;26.15;98468.37;1704816;83;20935;-61
2022/01/20 04:21:04;;;;;;;12.88;8.00;;;;;;;13.58;26.17;98468.66;1718934;83;21574;-60
2022/01/20 04:23:30;;;;;;;15.35;8.13;;;;;;;13.59;26.13;98459.62;1715916;82;21151;-58
2022/01/20 04:25:57;;;;;;;12.50;7.78;;;;;;;13.55;26.16;98458.42;1713778;82;20957;-60
2022/01/20 04:28:23;;;;;;;10.50;6.97;;;;;;;13.54;26.18;98450.09;1722884;83;20905;-60
2022/01/20 04:30:50;;;;;;;9.08;7.15;;;;;;;13.52;26.24;98457.50;1719501;81;21616;-60
2022/01/20 04:33:16;;;;;;;10.90;7.22;;;;;;;13.48;26.24;98453.60;1718971;82;21054;-61
2022/01/20 04:35:43;;;;;;;11.00;7.30;;;;;;;13.46;26.29;98450.33;1715802;83;21160;-61
2022/01/20 04:38:10;;;;;;;13.13;8.23;;;;;;;13.50;26.27;98448.86;1707045;83;20861;-60
2022/01/20 04:40:41;;;;;;;11.12;8.30;;;;;;;13.54;26.26;98442.59;1714275;83;21045;-60
2022/01/20 04:43:05;;;;;;;15.85;8.60;;;;;;;13.47;26.35;98440.47;1711575;82;21483;-61
2022/01/20 04:45:37;;;;;;;11.95;9.00;;;;;;;13.44;26.38;98435.55;1725074;81;20932;-59
2022/01/20 04:59:04;;;;;;;11.28;8.28;;;;;;;13.49;26.36;98416.52;1709975;83;20939;-60
2022/01/20 05:01:31;;;;;;;11.10;7.97;;;;;;;13.52;26.36;98421.95;1691401;81;21109;-60
2022/01/20 05:04:03;;;;;;;9.25;7.28;;;;;;;13.59;26.27;98420.88;1711362;83;21373;-61
2022/01/20 05:06:52;;;;;;;10.95;7.37;;;;;;;13.59;26.28;98422.20;1724104;82;20979;-61
2022/01/20 05:09:20;;;;;;;11.18;8.10;;;;;;;13.62;26.31;98415.61;1729475;82;20960;-62
2022/01/20 05:11:56;;;;;;;11.25;7.17;;;;;;;13.66;26.29;98406.66;1717886;83;21045;-63
2022/01/20 05:14:17;;;;;;;11.22;7.62;;;;;;;13.63;26.32;98405.75;1724867;83;21110;-61
2022/01/20 05:16:44;;;;;;;11.05;7.55;;;;;;;13.57;26.37;98402.91;1717956;81;21386;-60
2022/01/20 05:19:11;;;;;;;13.45;7.78;;;;;;;13.52;26.46;98405.41;1720228;81;20888;-62
2022/01/20 05:21:38;;;;;;;11.55;7.37;;;;;;;13.55;26.45;98396.14;1719186;83;21066;-60
2022/01/20 05:24:07;;;;;;;8.40;6.72;;;;;;;13.59;26.40;98388.80;1712606;83;20885;-59
2022/01/20 05:26:33;;;;;;;9.55;7.30;;;;;;;13.53;26.50;98393.66;1722102;81;21136;-63
2022/01/20 05:29:00;;;;;;;8.90;7.22;;;;;;;13.55;26.50;98382.27;1722370;83;21465;-58
2022/01/20 05:31:26;;;;;;;8.55;6.95;;;;;;;13.72;26.34;98371.03;1727345;81;20960;-57
2022/01/20 05:33:53;;;;;;;12.98;8.40;;;;;;;13.69;26.37;98371.49;1719742;83;20996;-62
2022/01/20 05:36:20;;;;;;;13.10;7.65;;;;;;;13.69;26.39;98365.60;1713135;82;21576;-60
2022/01/20 05:38:46;;;;;;;10.13;6.60;;;;;;;13.75;26.31;98356.73;1720923;83;21285;-61
2022/01/20 05:41:13;;;;;;;8.83;6.85;;;;;;;13.80;26.33;98353.39;1709827;83;20872;-60
2022/01/20 05:43:42;;;;;;;9.75;7.28;;;;;;;13.79;26.35;98352.57;1705493;81;21478;-61
2022/01/20 05:46:09;;;;;;;12.20;8.23;;;;;;;13.83;26.35;98343.61;1725515;81;21608;-60
2022/01/20 05:48:36;;;;;;;14.58;8.13;;;;;;;13.85;26.35;98340.19;1726890;83;21573;-62
2022/01/20 05:51:20;;;;;;;10.03;7.42;;;;;;;13.82;26.39;98345.45;1692740;83;21114;-60
2022/01/20 05:53:46;;;;;;;9.85;7.20;;;;;;;13.79;26.44;98337.87;1706920;83;21465;-58
2022/01/20 05:56:12;;;;;;;11.70;8.13;;;;;;;13.84;26.40;98335.90;1722915;81;20964;-59
2022/01/20 05:58:40;;;;;;;10.18;7.55;;;;;;;13.80;26.46;98333.34;1717755;82;20936;-58
2022/01/20 06:01:08;;;;;;;11.78;7.90;;;;;;;13.78;26.52;98335.42;1721950;81;20919;-60
2022/01/20 06:03:37;;;;;;;9.20;7.40;;;;;;;13.78;26.58;98332.75;1716163;83;21819;-58
2022/01/20 06:06:09;;;;;;;11.53;8.03;;;;;;;13.81;26.59;98326.98;1720513;82;20971;-63
2022/01/20 06:08:36;;;;;;;10.58;8.10;;;;;;;13.81;26.60;98327.80;1726411;82;20948;-60
2022/01/20 06:11:03;;;;;;;11.78;8.43;;;;;;;13.92;26.53;98316.91;1725528;81;21465;-68
2022/01/20 06:13:31;;;;;;;12.80;8.60;;;;;;;13.92;26.54;98308.89;1723939;82;20900;-67
2022/01/20 06:15:58;;;;;;;14.68;8.28;;;;;;;13.90;26.56;98312.28;1723986;81;21158;-61
2022/01/20 06:18:25;;;;;;;13.70;8.78;;;;;;;13.89;26.60;98307.99;1721607;83;21567;-58
2022/01/20 06:20:54;;;;;;;12.18;7.87;;;;;;;13.91;26.61;98320.10;1737616;82;20982;-61
2022/01/20 06:23:20;;;;;;;12.13;7.60;;;;;;;13.98;26.58;98314.68;1717248;83;20880;-62
2022/01/20 06:25:48;;;;;;;10.72;7.22;;;;;;;13.95;26.60;98323.95;1713215;83;21469;-59
2022/01/20 06:28:14;;;;;;;9.93;7.53;;;;;;;13.96;26.60;98320.77;1724075;81;21265;-59
2022/01/20 06:30:42;;;;;;;9.78;7.47;;;;;;;13.96;26.58;98320.26;1718910;81;21152;-59
2022/01/20 06:33:08;;;;;;;9.35;6.72;;;;;;;13.99;26.58;98310.98;1680932;84;21032;-62
2022/01/20 06:35:40;;;;;;;8.73;7.67;;;;;;;13.95;26.63;98304.42;1708766;83;20972;-58
2022/01/20 06:38:07;;;;;;;9.15;7.22;;;;;;;14.04;26.58;98297.77;1710904;83;20974;-60
2022/01/20 06:40:34;;;;;;;11.73;8.38;;;;;;;14.06;26.57;98279.13;1707478;83;21139;-59
2022/01/20 06:43:02;;;;;;;12.20;9.28;;;;;;;14.12;26.67;98284.11;1710264;83;21023;-61
2022/01/20 06:45:29;;;;;;;8.93;7.42;;;;;;;14.29;26.61;98276.33;1718731;83;20948;-62
2022/01/20 06:48:00;;;;;;;12.10;7.03;;;;;;;14.61;26.54;98275.97;1702920;83;20964;-61
2022/01/20 06:50:27;;;;;;;8.25;7.08;;;;;;;15.05;26.22;98257.36;1702967;83;21564;-60
2022/01/20 06:52:54;;;;;;;9.85;6.80;;;;;;;15.50;25.81;98259.08;1701608;83;21152;-62
2022/01/20 06:55:21;;;;;;;10.48;7.58;;;;;;;15.93;25.33;98246.67;1702400;83;20916;-59
2022/01/20 06:57:47;;;;;;;9.93;8.18;;;;;;;16.27;24.91;98247.72;1701293;83;21544;-60
2022/01/20 07:00:21;;;;;;;14.33;8.33;;;;;;;16.53;24.60;98231.09;1716548;83;20952;-62
2022/01/20 07:02:47;;;;;;;9.68;7.25;;;;;;;16.63;24.46;98231.31;1716058;83;21520;-59
2022/01/20 07:05:17;;;;;;;8.95;7.12;;;;;;;16.81;24.33;98224.41;1722282;83;21264;-61
2022/01/20 07:07:44;;;;;;;11.65;7.58;;;;;;;16.88;24.14;98212.17;1714261;83;21032;-60
2022/01/20 07:10:14;;;;;;;9.80;8.10;;;;;;;16.89;24.05;98206.58;1710077;81;20967;-62
2022/01/20 07:12:44;;;;;;;10.65;7.75;;;;;;;16.83;24.07;98207.53;1702764;83;21533;-60
2022/01/20 07:15:11;;;;;;;12.30;8.28;;;;;;;16.72;24.16;98196.30;1717921;83;21043;-59
2022/01/20 07:17:39;;;;;;;12.50;8.20;;;;;;;16.66;24.23;98191.36;1719598;81;21082;-61
2022/01/20 07:20:07;;;;;;;13.05;8.15;;;;;;;16.54;24.37;98196.48;1711875;83;21035;-63
2022/01/20 07:22:35;;;;;;;10.13;8.08;;;;;;;16.57;24.45;98191.98;1704969;82;21644;-60
2022/01/20 07:25:04;;;;;;;10.70;7.85;;;;;;;16.51;24.58;98209.01;1720419;83;21584;-57
2022/01/20 07:27:38;;;;;;;11.12;7.92;;;;;;;16.37;24.78;98201.75;1713883;83;26714;-61
2022/01/20 07:30:06;;;;;;;13.48;8.83;;;;;;;16.40;24.83;98191.09;1702280;83;21146;-62
2022/01/20 07:32:33;;;;;;;12.60;8.68;;;;;;;16.46;24.84;98192.80;1728723;82;21049;-61
2022/01/20 07:35:00;;;;;;;11.25;8.03;;;;;;;16.39;24.98;98189.45;1747508;82;20903;-59
2022/01/20 07:37:26;;;;;;;9.35;7.97;;;;;;;16.44;25.02;98186.34;1740245;82;20990;-62
2022/01/20 07:39:55;;;;;;;10.20;7.92;;;;;;;16.48;25.02;98191.52;1727149;81;21552;-60
2022/01/20 07:42:21;;;;;;;12.33;7.83;;;;;;;16.45;25.15;98194.67;1725518;82;22165;-61
2022/01/20 07:44:58;;;;;;;10.53;7.85;;;;;;;16.49;25.21;98195.02;1721253;82;20926;-59
2022/01/20 07:47:27;;;;;;;14.15;9.38;;;;;;;16.47;25.26;98195.27;1726944;82;20907;-58
2022/01/20 07:49:55;;;;;;;9.25;8.30;;;;;;;16.54;25.28;98197.83;1725536;81;20899;-62
2022/01/20 07:52:21;;;;;;;10.72;8.40;;;;;;;16.62;25.24;98191.56;1731876;82;20961;-63
2022/01/20 07:54:47;;;;;;;12.65;8.38;;;;;;;16.63;25.32;98194.52;1732650;82;21808;-61
2022/01/20 07:57:14;;;;;;;11.10;8.30;;;;;;;16.60;25.39;98201.73;1731462;82;20926;-59
2022/01/20 07:59:40;;;;;;;12.58;8.40;;;;;;;16.59;25.50;98205.98;1741971;82;20867;-58
2022/01/20 08:02:08;;;;;;;11.28;8.60;;;;;;;16.53;25.59;98205.58;1733601;82;21590;-59
2022/01/20 08:04:34;;;;;;;12.80;9.65;;;;;;;16.48;25.66;98201.42;1744679;82;21041;-61
2022/01/20 08:07:04;;;;;;;10.82;8.38;;;;;;;16.52;25.72;98206.14;1742358;80;22530;-58
2022/01/20 08:09:31;;;;;;;12.95;8.58;;;;;;;16.46;25.90;98193.63;1746524;80;20950;-62
2022/01/20 08:12:08;;;;;;;12.50;8.67;;;;;;;16.46;25.93;98196.83;1727430;82;919926;-60
2022/01/20 08:14:39;;;;;;;9.60;7.97;;;;;;;16.49;25.98;98187.78;1711962;82;21547;-61
2022/01/20 08:17:07;;;;;;;9.95;8.68;;;;;;;16.45;26.07;98175.88;1736857;82;20970;-60
2022/01/20 08:19:36;;;;;;;12.40;8.70;;;;;;;16.32;26.27;98156.03;1728274;82;21168;-60
2022/01/20 08:22:03;;;;;;;10.98;8.93;;;;;;;16.29;26.38;98159.73;1726116;80;20883;-59
2022/01/20 08:24:31;;;;;;;11.40;8.85;;;;;;;16.28;26.47;98160.77;1733254;81;21492;-59
2022/01/20 08:26:57;;;;;;;13.25;9.00;;;;;;;16.37;26.52;98160.70;1719228;83;21066;-60
2022/01/20 08:29:24;;;;;;;12.63;8.65;;;;;;;16.42;26.53;98159.45;1719626;81;20970;-60
2022/01/20 08:31:51;;;;;;;9.68;8.63;;;;;;;16.55;26.45;98165.91;1682449;83;21022;-61
2022/01/20 08:34:37;;;;;;;12.85;8.70;;;;;;;16.59;26.45;98168.39;1725652;81;20974;-66
2022/01/20 08:37:22;;;;;;;15.13;9.78;;;;;;;16.49;26.63;98161.47;1719783;81;21431;-61
2022/01/20 08:39:48;;;;;;;12.58;7.92;;;;;;;16.53;26.67;98163.45;1724416;81;20954;-61
2022/01/20 08:42:15;;;;;;;10.85;8.18;;;;;;;16.63;26.62;98148.87;1713520;81;21096;-58
2022/01/20 08:44:42;;;;;;;13.83;8.18;;;;;;;16.65;26.64;98147.31;1728834;81;21167;-61
2022/01/20 08:47:15;;;;;;;11.38;7.75;;;;;;;16.77;26.58;98151.27;1722010;81;20986;-62
2022/01/20 08:49:39;;;;;;;13.28;8.45;;;;;;;16.83;26.55;98145.75;1713077;81;21058;-62
2022/01/20 08:52:05;;;;;;;11.40;7.45;;;;;;;16.88;26.53;98150.39;1718992;81;21088;-63
2022/01/20 08:54:33;;;;;;;10.75;8.05;;;;;;;16.86;26.61;98141.25;1722470;81;21049;-61
2022/01/20 08:57:03;;;;;;;11.83;8.45;;;;;;;16.84;26.74;98141.20;1720156;81;21866;-59
2022/01/20 08:59:31;;;;;;;9.83;7.97;;;;;;;16.88;26.76;98147.18;1724279;81;20891;-62
2022/01/20 09:01:58;;;;;;;9.68;7.55;;;;;;;17.04;26.64;98147.73;1725473;81;21515;-65
2022/01/20 09:04:24;;;;;;;11.05;7.90;;;;;;;17.12;26.57;98152.70;1751720;81;21083;-60
2022/01/20 09:07:05;;;;;;;10.98;7.60;;;;;;;17.13;26.60;98138.72;1684441;82;20925;-63
2022/01/20 09:09:41;;;;;;;10.63;8.30;;;;;;;17.16;26.58;98126.96;1720940;81;21350;-63
2022/01/20 09:17:23;;;;;;;14.85;8.50;;;;;;;17.27;26.56;98132.79;1708081;81;20926;-60
2022/01/20 09:19:49;;;;;;;14.33;8.90;;;;;;;17.34;26.54;98129.13;1749416;81;20997;-63
2022/01/20 09:22:16;;;;;;;12.23;8.98;;;;;;;17.38;26.51;98119.50;1681135;83;21826;-63
2022/01/20 09:24:45;;;;;;;9.83;7.58;;;;;;;17.38;26.57;98113.60;1738688;81;20887;-62
2022/01/20 09:27:13;;;;;;;10.72;8.10;;;;;;;17.39;26.59;98110.39;1721852;83;20954;-58
2022/01/20 09:29:41;;;;;;;10.88;7.62;;;;;;;17.37;26.66;98101.73;1745690;81;20899;-60
2022/01/20 09:32:10;;;;;;;10.15;7.70;;;;;;;17.32;26.77;98100.31;1721926;81;21521;-60
2022/01/20 09:34:36;;;;;;;12.95;7.90;;;;;;;17.07;27.08;98099.41;1721852;81;21902;-63
2022/01/20 09:37:03;;;;;;;10.53;7.53;;;;;;;17.02;27.20;98080.53;1723088;81;20990;-61
2022/01/20 09:39:31;;;;;;;10.78;7.00;;;;;;;17.00;27.23;98096.05;1712104;81;21011;-58
2022/01/20 09:42:04;;;;;;;9.23;7.33;;;;;;;17.01;27.23;98094.48;1726549;81;20899;-62
2022/01/20 09:44:32;;;;;;;9.20;7.70;;;;;;;16.96;27.31;98081.50;1701098;82;21001;-61
2022/01/20 09:46:58;;;;;;;11.55;7.75;;;;;;;16.93;27.29;98074.74;1711555;83;21145;-59
2022/01/20 09:49:33;;;;;;;9.98;7.65;;;;;;;17.02;27.24;98080.00;1712895;83;20873;-61
2022/01/20 09:52:01;;;;;;;11.35;7.47;;;;;;;16.99;27.25;98065.72;1709955;82;20993;-60
2022/01/20 09:54:32;;;;;;;11.15;7.37;;;;;;;17.02;27.30;98067.92;1721373;81;21067;-61
2022/01/20 09:57:06;;;;;;;9.65;7.53;;;;;;;17.10;27.18;98076.09;1723128;81;21571;-59
2022/01/20 09:59:32;;;;;;;13.00;7.97;;;;;;;17.13;27.17;98079.08;1705330;82;21711;-61
2022/01/20 10:02:01;;;;;;;11.35;8.20;;;;;;;17.13;27.21;98066.98;1721467;83;20994;-58
2022/01/20 10:04:35;;;;;;;10.63;8.30;;;;;;;17.26;27.09;98061.27;1718178;81;21493;-61
2022/01/20 10:07:11;;;;;;;10.48;8.50;;;;;;;17.22;27.11;98064.19;1722751;81;21127;-62
2022/01/20 10:09:47;;;;;;;10.20;8.78;;;;;;;17.21;27.11;98058.52;1683992;83;21010;-61
2022/01/20 10:12:19;;;;;;;13.08;9.55;;;;;;;17.25;27.06;98058.33;1719257;83;21810;-63
2022/01/20 10:14:57;;;;;;;11.73;8.08;;;;;;;17.19;27.13;98047.20;1695617;83;20992;-60
2022/01/20 10:17:42;;;;;;;11.93;8.53;;;;;;;17.23;27.12;98051.02;1704644;82;20880;-60
2022/01/20 10:20:09;;;;;;;11.40;8.83;;;;;;;17.23;27.11;98062.31;1717233;83;21019;-63
2022/01/20 10:22:45;;;;;;;13.72;8.68;;;;;;;17.34;27.04;98043.13;1715242;83;20921;-61
2022/01/20 10:25:35;;;;;;;10.85;7.75;;;;;;;17.34;27.01;98044.47;1706879;83;21170;-62
2022/01/20 10:28:06;;;;;;;10.05;6.95;;;;;;;17.36;27.00;98047.71;1710507;82;21004;-61
2022/01/20 10:30:33;;;;;;;9.18;6.92;;;;;;;17.37;27.00;98043.94;1680203;83;20918;-60
2022/01/20 10:33:00;;;;;;;10.58;8.25;;;;;;;17.34;27.02;98043.13;1700494;83;21033;-61
2022/01/20 10:35:33;;;;;;;12.82;8.10;;;;;;;17.38;27.06;98030.80;1711701;82;20995;-62
2022/01/20 10:38:12;;;;;;;11.68;7.25;;;;;;;17.48;26.99;98033.62;1715038;82;21086;-58
2022/01/20 10:40:54;;;;;;;8.18;6.78;;;;;;;17.48;27.02;98024.20;1706481;83;20967;-61
2022/01/20 10:43:32;;;;;;;8.55;6.95;;;;;;;17.43;27.13;98034.89;1708911;82;20968;-61
2022/01/20 10:46:11;;;;;;;9.68;7.50;;;;;;;17.50;27.09;98018.05;1715389;81;20965;-65
2022/01/20 10:48:38;;;;;;;10.38;7.75;;;;;;;17.54;27.01;98020.04;1725351;82;21007;-61
2022/01/20 10:51:19;;;;;;;10.43;6.78;;;;;;;17.64;26.89;98023.38;1707206;82;21499;-62
2022/01/20 10:54:13;;;;;;;10.60;7.75;;;;;;;17.60;26.95;98019.55;1716380;82;20963;-57
2022/01/20 10:56:57;;;;;;;9.53;7.08;;;;;;;17.56;27.00;98014.40;1713788;82;21097;-60
2022/01/20 10:59:24;;;;;;;9.98;7.47;;;;;;;17.53;26.99;98005.48;1701847;82;20994;-61
2022/01/20 11:02:09;;;;;;;11.12;7.80;;;;;;;17.60;26.97;97998.03;1711026;81;21097;-61
2022/01/20 11:04:38;;;;;;;9.43;7.55;;;;;;;17.61;26.98;97992.95;1678183;83;21157;-62
2022/01/20 11:07:07;;;;;;;9.95;8.25;;;;;;;17.78;26.83;97993.70;1706021;82;21516;-60
2022/01/20 11:09:39;;;;;;;8.68;7.20;;;;;;;17.50;27.23;97992.50;1704499;83;20998;-59
2022/01/20 11:12:18;;;;;;;8.53;7.22;;;;;;;17.48;27.33;97992.77;1677619;81;20946;-60
2022/01/20 11:14:47;;;;;;;8.60;7.67;;;;;;;17.57;27.36;97987.81;1679520;83;21111;-63
2022/01/20 11:17:24;;;;;;;12.88;8.88;;;;;;;17.62;27.39;97989.21;1685610;83;21150;-61
2022/01/20 11:19:51;;;;;;;12.25;8.93;;;;;;;17.59;27.52;97985.67;1706180;83;21052;-61
2022/01/20 11:22:20;;;;;;;9.63;8.23;;;;;;;17.55;27.85;97980.50;1713704;83;20992;-62
2022/01/20 11:25:01;;;;;;;11.22;7.85;;;;;;;17.53;28.14;97991.52;1718145;82;21622;-63
2022/01/20 11:27:42;;;;;;;11.40;8.65;;;;;;;17.66;28.30;97993.01;1709764;83;21506;-61
2022/01/20 11:30:26;;;;;;;10.58;9.03;;;;;;;17.70;28.70;97990.91;1710583;81;21258;-63
2022/01/20 11:33:05;;;;;;;9.88;7.87;;;;;;;17.70;28.65;97993.59;1705919;83;20886;-60
2022/01/20 11:35:54;;;;;;;9.88;7.60;;;;;;;17.76;28.43;97987.22;1717353;82;21297;-62
2022/01/20 11:38:21;;;;;;;;;;;;;;;17.67;28.54;97981.20;1713933;82;20980;-63
2022/01/20 11:40:54;;;;;;;9.50;7.47;;;;;;;17.70;28.50;97975.33;1675507;83;20089;-61
2022/01/20 11:43:36;;;;;;;10.25;7.47;;;;;;;17.81;28.40;97977.86;1719597;81;21147;-60
2022/01/20 11:46:11;;;;;;;10.85;9.35;;;;;;;17.83;28.34;97975.72;1715891;81;21407;-59
2022/01/20 11:48:35;;;;;;;10.53;8.30;;;;;;;17.91;28.28;97975.02;1719788;83;21024;-63
2022/01/20 11:51:07;;;;;;;9.53;7.65;;;;;;;18.09;28.12;97977.34;1718269;81;21593;-60
2022/01/20 11:53:41;;;;;;;9.95;7.58;;;;;;;18.05;28.07;97967.62;1703230;82;20990;-62
2022/01/20 11:56:03;;;;;;;11.85;8.08;;;;;;;18.05;28.07;97970.31;1710664;83;21164;-63
2022/01/20 11:58:30;;;;;;;9.45;8.33;;;;;;;18.12;27.97;97974.16;1708535;83;21522;-61
2022/01/20 12:01:08;;;;;;;10.35;8.55;;;;;;;18.05;27.98;97968.97;1687513;83;21025;-61
2022/01/20 12:03:36;;;;;;;9.78;7.80;;;;;;;18.11;27.95;97961.23;1672861;83;21516;-59
2022/01/20 12:06:13;;;;;;;11.35;8.30;;;;;;;18.23;27.81;97961.05;1708138;81;20931;-59
2022/01/20 12:09:00;;;;;;;9.35;7.62;;;;;;;18.22;27.73;97965.64;1703939;83;21189;-62
2022/01/20 12:11:41;;;;;;;9.45;7.20;;;;;;;18.21;27.64;97961.32;1710252;82;21026;-61
2022/01/20 12:14:08;;;;;;;14.68;7.40;;;;;;;18.29;27.48;97958.16;1716816;82;21443;-61
2022/01/20 12:16:36;;;;;;;9.05;7.08;;;;;;;18.34;27.43;97956.86;1717038;81;21496;-63
2022/01/20 12:19:02;;;;;;;11.45;8.88;;;;;;;18.32;27.38;97938.81;1719958;81;20931;-63
2022/01/20 12:21:30;;;;;;;10.60;8.03;;;;;;;18.49;27.20;97942.20;1711417;83;21114;-64
2022/01/20 12:23:57;;;;;;;10.72;7.67;;;;;;;18.54;27.12;97939.29;1706523;82;20956;-64
2022/01/20 12:26:24;;;;;;;8.53;7.12;;;;;;;18.66;26.96;97930.48;1708494;83;20873;-61
2022/01/20 12:29:08;;;;;;;8.35;7.22;;;;;;;18.65;26.89;97918.89;1724379;81;20954;-61
2022/01/20 12:31:54;;;;;;;7.65;6.72;;;;;;;18.56;26.87;97934.45;1715876;81;21011;-60
2022/01/20 12:34:21;;;;;;;10.15;8.20;;;;;;;18.52;26.88;97929.28;1716481;83;21095;-64
2022/01/20 12:36:56;;;;;;;9.15;7.35;;;;;;;18.57;26.86;97927.45;1711697;83;20927;-62
2022/01/20 12:39:29;;;;;;;10.13;7.37;;;;;;;18.56;26.86;97919.64;1715618;81;20941;-62
2022/01/20 12:41:58;;;;;;;9.83;6.62;;;;;;;18.56;26.79;97920.45;1713630;81;20999;-61
2022/01/20 12:44:46;;;;;;;10.15;7.92;;;;;;;18.53;26.79;97916.92;1723220;81;21150;-61
2022/01/20 12:47:09;;;;;;;9.13;7.53;;;;;;;18.60;26.75;97915.34;1725107;81;21185;-59
2022/01/20 12:49:37;;;;;;;9.28;7.33;;;;;;;18.61;26.68;97915.63;1721317;81;21542;-59
2022/01/20 12:52:06;;;;;;;7.75;6.87;;;;;;;18.54;26.76;97904.28;1715062;83;22498;-62
2022/01/20 12:54:33;;;;;;;8.80;7.33;;;;;;;18.46;26.83;97902.30;1725947;81;21547;-62